createdAt,value
2019-01-02T00:00:01.378Z,100857.92
2019-01-02T00:01:05.979Z,100880.84
2019-01-02T00:02:10.446Z,100874.31
2019-01-02T00:03:14.863Z,100887.69
2019-01-02T00:04:19.293Z,100880.50
2019-01-02T00:05:23.887Z,100890.38
2019-01-02T00:06:28.390Z,100889.03
2019-01-02T00:07:32.876Z,100893.72
2019-01-02T00:08:37.202Z,100889.22
2019-01-02T00:09:41.591Z,100894.24
2019-01-02T00:10:46.236Z,100899.09
2019-01-02T00:11:50.751Z,100907.09
2019-01-02T00:12:55.290Z,100918.97
2019-01-02T00:13:59.749Z,100923.15
2019-01-02T00:15:04.243Z,100919.16
2019-01-02T00:16:08.741Z,100926.34
2019-01-02T00:17:13.298Z,100924.67
2019-01-02T00:18:17.925Z,100930.84
2019-01-02T00:19:22.302Z,100938.03
2019-01-02T00:20:26.750Z,100935.21
2019-01-02T00:21:31.206Z,100957.59
2019-01-02T00:22:35.523Z,100939.55
2019-01-02T00:23:40.010Z,100944.91
2019-01-02T00:24:44.308Z,100931.17
2019-01-02T00:25:48.771Z,100944.40
2019-01-02T00:26:53.303Z,100944.22
2019-01-02T00:27:57.703Z,100948.58
2019-01-02T00:29:02.248Z,100953.27
2019-01-02T00:30:07.131Z,100976.02
2019-01-02T00:31:11.615Z,100949.08
2019-01-02T00:32:16.245Z,100966.64
2019-01-02T00:33:20.763Z,100967.14
2019-01-02T00:34:25.228Z,100962.63
2019-01-02T00:35:29.602Z,100961.96
2019-01-02T00:36:34.030Z,100972.83
2019-01-02T00:37:38.383Z,100985.38
2019-01-02T00:38:42.933Z,100982.70
2019-01-02T00:39:47.457Z,100971.69
2019-01-02T00:40:51.892Z,100990.08
2019-01-02T00:41:56.281Z,100994.41
2019-01-02T00:43:00.648Z,100992.38
2019-01-02T00:44:05.252Z,100997.90
2019-01-02T00:45:09.885Z,101009.44
2019-01-02T00:46:14.351Z,101003.92
2019-01-02T00:47:18.666Z,101021.95
2019-01-02T00:48:23.015Z,101023.13
2019-01-02T00:49:27.473Z,101018.44
2019-01-02T00:50:31.905Z,101010.41
2019-01-02T00:51:36.382Z,101029.48
2019-01-02T00:52:40.666Z,101036.84
2019-01-02T00:53:45.053Z,101033.97
2019-01-02T00:54:49.696Z,101043.19
2019-01-02T00:55:54.082Z,101042.83
2019-01-02T01:00:33.468Z,101072.21
2019-01-02T01:01:37.860Z,101067.06
2019-01-02T01:02:42.370Z,101069.20
2019-01-02T01:03:46.781Z,101076.89
2019-01-02T01:04:51.272Z,101070.87
2019-01-02T01:05:55.866Z,101076.68
2019-01-02T01:07:00.335Z,101080.19
2019-01-02T01:08:04.660Z,101090.22
2019-01-02T01:09:09.215Z,101091.23
2019-01-02T01:10:15.446Z,101093.19
2019-01-02T01:11:19.869Z,101093.89
2019-01-02T01:12:24.231Z,101105.09
2019-01-02T01:13:28.642Z,101112.23
2019-01-02T01:14:33.260Z,101114.91
2019-01-02T01:15:37.814Z,101108.56
2019-01-02T01:16:42.230Z,101107.67
2019-01-02T01:17:46.742Z,101119.55
2019-01-02T01:18:51.165Z,101123.22
2019-01-02T01:19:55.546Z,101122.55
2019-01-02T01:21:00.023Z,101131.07
2019-01-02T01:22:04.454Z,101127.56
2019-01-02T01:23:08.767Z,101145.60
2019-01-02T01:24:13.276Z,101138.08
2019-01-02T01:25:17.675Z,101142.77
2019-01-02T01:26:22.106Z,101135.19
2019-01-02T01:27:26.599Z,101138.86
2019-01-02T01:28:30.892Z,101150.94
2019-01-02T01:29:35.283Z,101144.38
2019-01-02T01:30:39.628Z,101165.93
2019-01-02T01:31:44.068Z,101180.45
2019-01-02T01:32:48.520Z,101175.91
2019-01-02T01:33:53.082Z,101165.85
2019-01-02T01:34:57.750Z,101174.89
2019-01-02T01:36:02.126Z,101192.76
2019-01-02T01:37:06.471Z,101163.18
2019-01-02T01:38:10.962Z,101187.57
2019-01-02T01:39:15.363Z,101182.56
2019-01-02T01:40:19.750Z,101197.59
2019-01-02T01:41:24.057Z,101199.94
2019-01-02T01:42:28.467Z,101200.62
2019-01-02T01:43:32.976Z,101204.28
2019-01-02T01:44:37.318Z,101218.67
2019-01-02T01:45:41.683Z,101212.96
2019-01-02T01:46:46.229Z,101216.63
2019-01-02T01:47:50.520Z,101220.64
2019-01-02T01:48:54.888Z,101219.33
2019-01-02T01:49:59.445Z,101234.84
2019-01-02T01:51:03.956Z,101225.75
2019-01-02T01:52:08.338Z,101224.26
2019-01-02T01:53:12.876Z,101238.22
2019-01-02T01:54:17.211Z,101237.88
2019-01-02T01:55:21.645Z,101247.45
2019-01-02T01:56:26.118Z,101249.28
2019-01-02T01:57:30.477Z,101261.85
2019-01-02T01:58:34.903Z,101254.17
2019-01-02T01:59:39.490Z,101248.08
2019-01-02T02:00:43.912Z,101257.90
2019-01-02T02:01:48.439Z,101270.86
2019-01-02T02:02:52.909Z,101267.91
2019-01-02T02:03:57.250Z,101268.19
2019-01-02T02:05:01.741Z,101288.79
2019-01-02T02:06:06.079Z,101266.17
2019-01-02T02:07:10.537Z,101274.71
2019-01-02T02:08:14.873Z,101282.73
2019-01-02T02:09:19.222Z,101277.63
2019-01-02T02:10:23.776Z,101279.96
2019-01-02T02:11:27.960Z,101286.48
2019-01-02T02:12:32.377Z,101291.33
2019-01-02T02:13:36.889Z,101288.97
2019-01-02T02:14:41.343Z,101293.39
2019-01-02T02:15:45.710Z,101303.27
2019-01-02T02:16:50.126Z,101298.39
2019-01-02T02:17:54.578Z,101300.91
2019-01-02T02:18:58.834Z,101293.55
2019-01-02T02:20:03.176Z,101295.56
2019-01-02T02:21:07.686Z,101297.64
2019-01-02T02:22:12.050Z,101305.50
2019-01-02T02:23:16.482Z,101311.00
2019-01-02T02:24:20.920Z,101313.09
2019-01-02T02:25:25.390Z,101318.61
2019-01-02T02:26:29.820Z,101321.44
2019-01-02T02:27:34.237Z,101326.22
2019-01-02T02:28:38.820Z,101344.24
2019-01-02T02:29:43.132Z,101336.13
2019-01-02T02:30:47.391Z,101347.91
2019-01-02T02:31:52.000Z,101354.66
2019-01-02T02:32:56.392Z,101344.31
2019-01-02T02:34:00.803Z,101356.77
2019-01-02T02:35:05.297Z,101364.97
2019-01-02T02:36:09.685Z,101355.15
2019-01-02T02:37:14.158Z,101363.09
2019-01-02T02:38:18.476Z,101353.31
2019-01-02T02:39:22.906Z,101364.28
2019-01-02T02:40:27.346Z,101369.28
2019-01-02T02:41:31.666Z,101366.92
2019-01-02T02:42:36.180Z,101375.92
2019-01-02T02:43:40.479Z,101375.77
2019-01-02T02:44:44.881Z,101375.92
2019-01-02T02:45:49.230Z,101378.59
2019-01-02T02:46:53.845Z,101386.98
2019-01-02T02:47:58.319Z,101385.77
2019-01-02T02:49:02.816Z,101395.80
2019-01-02T02:50:09.020Z,101393.22
2019-01-02T02:51:13.497Z,101409.66
2019-01-02T02:52:17.903Z,101405.09
2019-01-02T02:53:22.450Z,101412.72
2019-01-02T02:54:26.906Z,101423.29
2019-01-02T02:55:31.468Z,101406.87
2019-01-02T02:56:35.836Z,101416.91
2019-01-02T02:57:40.247Z,101422.95
2019-01-02T02:58:44.639Z,101432.02
2019-01-02T02:59:49.063Z,101434.47
2019-01-02T03:00:53.402Z,101422.95
2019-01-02T03:01:57.639Z,101439.69
2019-01-02T03:03:02.288Z,101428.94
2019-01-02T03:04:06.746Z,101438.93
2019-01-02T03:05:12.589Z,101435.31
2019-01-02T03:06:17.057Z,101432.79
2019-01-02T03:07:21.521Z,101443.86
2019-01-02T03:08:26.008Z,101440.91
2019-01-02T03:09:30.369Z,101447.22
2019-01-02T03:10:34.826Z,101461.56
2019-01-02T03:11:39.374Z,101458.05
2019-01-02T03:12:43.838Z,101452.71
2019-01-02T03:13:48.252Z,101456.82
2019-01-02T03:14:52.686Z,101454.99
2019-01-02T03:15:57.096Z,101463.55
2019-01-02T03:17:01.625Z,101471.25
2019-01-02T03:18:06.094Z,101471.55
2019-01-02T03:19:10.508Z,101469.73
2019-01-02T03:20:15.938Z,101473.67
2019-01-02T03:21:20.366Z,101486.05
2019-01-02T03:22:24.765Z,101479.52
2019-01-02T03:23:29.290Z,101486.55
2019-01-02T03:24:33.712Z,101486.47
2019-01-02T03:25:38.129Z,101493.72
2019-01-02T03:26:42.526Z,101493.98
2019-01-02T03:27:46.932Z,101473.45
2019-01-02T03:28:51.239Z,101504.05
2019-01-02T03:29:55.618Z,101501.37
2019-01-02T03:31:00.187Z,101510.22
2019-01-02T03:32:04.453Z,101505.61
2019-01-02T03:33:08.959Z,101502.09
2019-01-02T03:34:13.197Z,101512.78
2019-01-02T03:35:17.675Z,101514.80
2019-01-02T03:36:22.031Z,101510.11
2019-01-02T03:37:26.339Z,101510.67
2019-01-02T03:38:30.683Z,101524.71
2019-01-02T03:39:34.997Z,101510.38
2019-01-02T03:40:39.328Z,101520.36
2019-01-02T03:41:43.706Z,101523.33
2019-01-02T03:42:48.063Z,101541.30
2019-01-02T03:43:52.476Z,101532.94
2019-01-02T03:44:56.848Z,101541.38
2019-01-02T03:46:01.205Z,101538.91
2019-01-02T03:47:05.526Z,101536.59
2019-01-02T03:48:09.999Z,101540.59
2019-01-02T03:49:14.423Z,101545.53
2019-01-02T03:50:20.043Z,101542.86
2019-01-02T03:51:24.359Z,101546.48
2019-01-02T03:52:28.495Z,101552.55
2019-01-02T03:53:32.885Z,101551.28
2019-01-02T03:54:37.272Z,101553.45
2019-01-02T03:55:41.681Z,101563.78
2019-01-02T03:56:46.018Z,101566.52
2019-01-02T03:57:50.390Z,101553.31
2019-01-02T03:58:54.931Z,101559.63
2019-01-02T03:59:59.246Z,101560.97
2019-01-02T04:01:03.679Z,101566.45
2019-01-02T04:02:08.071Z,101568.69
2019-01-02T04:03:12.560Z,101585.64
2019-01-02T04:04:16.879Z,101577.77
2019-01-02T04:05:23.423Z,101580.35
2019-01-02T04:06:27.772Z,101577.62
2019-01-02T04:07:32.220Z,101579.01
2019-01-02T04:08:36.472Z,101591.22
2019-01-02T04:09:40.914Z,101590.63
2019-01-02T04:10:45.156Z,101579.50
2019-01-02T04:11:49.476Z,101582.87
2019-01-02T04:12:53.769Z,101599.52
2019-01-02T04:13:58.111Z,101589.34
2019-01-02T04:15:02.520Z,101597.89
2019-01-02T04:16:06.827Z,101587.38
2019-01-02T04:17:11.147Z,101602.98
2019-01-02T04:18:15.574Z,101606.79
2019-01-02T04:19:19.878Z,101609.52
2019-01-02T04:20:24.487Z,101603.83
2019-01-02T04:21:28.872Z,101618.64
2019-01-02T04:22:33.212Z,101617.91
2019-01-02T04:23:37.515Z,101615.25
2019-01-02T04:24:41.823Z,101626.91
2019-01-02T04:25:46.136Z,101618.27
2019-01-02T04:26:50.558Z,101620.09
2019-01-02T04:27:54.861Z,101621.92
2019-01-02T04:28:59.359Z,101615.53
2019-01-02T04:30:03.764Z,101613.00
2019-01-02T04:31:08.247Z,101617.42
2019-01-02T04:32:12.567Z,101629.23
2019-01-02T04:33:16.976Z,101628.03
2019-01-02T04:34:21.434Z,101619.73
2019-01-02T04:35:25.812Z,101623.94
2019-01-02T04:36:30.291Z,101630.70
2019-01-02T04:37:34.618Z,101635.48
2019-01-02T04:38:38.923Z,101648.52
2019-01-02T04:39:43.342Z,101638.75
2019-01-02T04:40:47.670Z,101639.25
2019-01-02T04:41:52.082Z,101651.69
2019-01-02T04:42:56.420Z,101650.59
2019-01-02T04:44:00.768Z,101665.91
2019-01-02T04:45:05.160Z,101664.13
2019-01-02T04:46:09.548Z,101659.95
2019-01-02T04:47:13.898Z,101672.76
2019-01-02T04:48:18.355Z,101672.72
2019-01-02T04:49:22.710Z,101682.45
2019-01-02T04:50:27.005Z,101693.78
2019-01-02T04:51:31.485Z,101679.74
2019-01-02T04:52:35.809Z,101694.63
2019-01-02T04:53:40.186Z,101683.60
2019-01-02T04:54:44.443Z,101694.48
2019-01-02T04:55:48.900Z,101691.25
2019-01-02T04:56:53.318Z,101691.95
2019-01-02T04:57:57.691Z,101705.30
2019-01-02T04:59:02.019Z,101691.89
2019-01-02T05:00:10.469Z,101697.58
2019-01-02T05:01:14.917Z,101704.87
2019-01-02T05:02:19.206Z,101692.13
2019-01-02T05:03:23.632Z,101707.90
2019-01-02T05:04:27.899Z,101711.37
2019-01-02T05:05:32.278Z,101700.13
2019-01-02T05:06:36.762Z,101704.00
2019-01-02T05:07:41.192Z,101710.50
2019-01-02T05:08:45.630Z,101695.71
2019-01-02T05:09:49.960Z,101705.89
2019-01-02T05:10:54.440Z,101710.45
2019-01-02T05:11:58.711Z,101725.14
2019-01-02T05:13:02.989Z,101710.45
2019-01-02T05:14:07.336Z,101712.70
2019-01-02T05:15:11.855Z,101729.42
2019-01-02T05:16:16.308Z,101714.56
2019-01-02T05:17:20.556Z,101724.61
2019-01-02T05:18:24.929Z,101740.66
2019-01-02T05:19:29.332Z,101743.92
2019-01-02T05:20:33.701Z,101733.80
2019-01-02T05:21:38.237Z,101739.28
2019-01-02T05:22:42.747Z,101751.57
2019-01-02T05:23:46.861Z,101748.80
2019-01-02T05:24:51.353Z,101744.09
2019-01-02T05:25:55.707Z,101745.94
2019-01-02T05:27:00.192Z,101754.12
2019-01-02T05:28:04.616Z,101765.50
2019-01-02T05:29:08.869Z,101761.12
2019-01-02T05:30:15.612Z,101768.56
2019-01-02T05:31:19.869Z,101768.45
2019-01-02T05:32:24.224Z,101779.61
2019-01-02T05:33:28.513Z,101784.45
2019-01-02T05:34:32.774Z,101794.75
2019-01-02T05:35:36.986Z,101780.45
2019-01-02T05:36:41.294Z,101786.96
2019-01-02T05:37:45.763Z,101791.73
2019-01-02T05:38:50.135Z,101790.34
2019-01-02T05:39:54.869Z,101799.95
2019-01-02T05:40:59.117Z,101800.66
2019-01-02T05:42:03.558Z,101809.91
2019-01-02T05:43:07.910Z,101802.70
2019-01-02T05:44:12.285Z,101816.14
2019-01-02T05:45:16.433Z,101820.85
2019-01-02T05:46:20.842Z,101820.15
2019-01-02T05:47:25.256Z,101817.48
2019-01-02T05:48:29.627Z,101834.13
2019-01-02T05:49:34.085Z,101842.02
2019-01-02T05:50:38.452Z,101819.96
2019-01-02T05:51:42.838Z,101863.72
2019-01-02T05:52:47.117Z,101848.95
2019-01-02T05:53:51.589Z,101859.33
2019-01-02T05:54:55.914Z,101855.47
2019-01-02T05:56:00.324Z,101863.58
2019-01-02T05:57:04.743Z,101863.58
2019-01-02T05:58:09.220Z,101879.37
2019-01-02T05:59:13.675Z,101868.56
2019-01-02T06:00:18.054Z,101856.20
2019-01-02T06:01:22.359Z,101870.44
2019-01-02T06:02:26.859Z,101873.56
2019-01-02T06:03:31.165Z,101875.88
2019-01-02T06:04:35.599Z,101871.39
2019-01-02T06:05:40.130Z,101884.48
2019-01-02T06:06:44.550Z,101886.80
2019-01-02T06:07:49.029Z,101870.10
2019-01-02T06:08:53.432Z,101891.53
2019-01-02T06:09:57.908Z,101884.86
2019-01-02T06:11:02.194Z,101895.94
2019-01-02T06:12:06.507Z,101907.95
2019-01-02T06:13:10.769Z,101907.89
2019-01-02T06:14:15.230Z,101899.09
2019-01-02T06:15:19.666Z,101901.37
2019-01-02T06:16:23.927Z,101904.17
2019-01-02T06:17:28.330Z,101910.54
2019-01-02T06:18:32.627Z,101917.80
2019-01-02T06:19:36.953Z,101925.30
2019-01-02T06:20:41.323Z,101914.41
2019-01-02T06:21:45.720Z,101926.16
2019-01-02T06:22:50.048Z,101919.75
2019-01-02T06:23:54.332Z,101931.05
2019-01-02T06:24:58.574Z,101928.82
2019-01-02T06:26:03.031Z,101940.25
2019-01-02T06:27:07.389Z,101938.34
2019-01-02T06:28:11.877Z,101953.81
2019-01-02T06:29:16.300Z,101944.73
2019-01-02T06:30:20.718Z,101967.55
2019-01-02T06:31:25.180Z,101956.88
2019-01-02T06:32:29.508Z,101951.05
2019-01-02T06:33:33.868Z,101964.73
2019-01-02T06:34:38.244Z,101958.69
2019-01-02T06:35:42.584Z,101970.08
2019-01-02T06:36:46.961Z,101966.57
2019-01-02T06:37:51.258Z,101975.06
2019-01-02T06:38:55.507Z,101964.39
2019-01-02T06:39:59.913Z,101980.52
2019-01-02T06:41:04.407Z,101967.81
2019-01-02T06:42:08.972Z,101980.04
2019-01-02T06:43:13.255Z,101975.94
2019-01-02T06:44:17.783Z,101976.79
2019-01-02T06:45:22.090Z,101977.99
2019-01-02T06:46:26.445Z,101965.64
2019-01-02T06:47:30.821Z,101978.70
2019-01-02T06:48:35.199Z,101986.48
2019-01-02T06:49:39.595Z,102003.69
2019-01-02T06:50:43.905Z,101993.38
2019-01-02T06:51:48.308Z,101995.32
2019-01-02T06:52:52.690Z,102005.63
2019-01-02T06:53:56.940Z,102011.58
2019-01-02T06:55:01.167Z,102010.51
2019-01-02T06:56:05.545Z,102004.79
2019-01-02T06:57:10.092Z,102009.98
2019-01-02T06:58:14.349Z,102011.00
2019-01-02T06:59:18.804Z,102014.73
2019-01-02T07:00:32.336Z,102009.14
2019-01-02T07:01:36.714Z,102008.81
2019-01-02T07:02:41.201Z,102027.22
2019-01-02T07:03:45.558Z,102019.00
2019-01-02T07:04:49.867Z,102033.30
2019-01-02T07:05:54.569Z,102027.58
2019-01-02T07:06:59.002Z,102022.86
2019-01-02T07:08:03.355Z,102025.42
2019-01-02T07:09:09.217Z,102028.09
2019-01-02T07:10:13.761Z,102038.62
2019-01-02T07:11:18.182Z,102035.11
2019-01-02T07:12:22.654Z,102038.39
2019-01-02T07:13:27.020Z,102038.12
2019-01-02T07:14:31.383Z,102047.95
2019-01-02T07:15:35.941Z,102042.27
2019-01-02T07:16:40.339Z,102056.17
2019-01-02T07:17:44.765Z,102025.64
2019-01-02T07:18:49.288Z,102044.81
2019-01-02T07:19:53.632Z,102049.39
2019-01-02T07:20:58.173Z,102051.97
2019-01-02T07:22:02.592Z,102050.51
2019-01-02T07:23:07.110Z,102054.50
2019-01-02T07:24:11.377Z,102047.83
2019-01-02T07:25:15.725Z,102050.50
2019-01-02T07:26:20.124Z,102059.34
2019-01-02T07:27:24.518Z,102060.56
2019-01-02T07:28:29.147Z,102057.90
2019-01-02T07:29:33.608Z,102059.59
2019-01-02T07:30:38.092Z,102057.28
2019-01-02T07:31:42.474Z,102058.26
2019-01-02T07:32:46.902Z,102067.82
2019-01-02T07:34:01.950Z,102071.23
2019-01-02T07:36:17.722Z,102084.55
2019-01-02T07:37:52.376Z,102073.89
2019-01-02T07:39:17.654Z,102074.61
2019-01-02T07:40:33.762Z,102093.38
2019-01-02T07:43:55.574Z,102089.02
2019-01-02T07:46:17.470Z,102100.64
2019-01-02T07:47:32.587Z,102086.97
2019-01-02T07:48:48.491Z,102102.32
2019-01-02T07:52:21.235Z,102103.05
2019-01-02T07:56:00.370Z,102112.51
2019-01-02T07:57:59.523Z,102124.73
2019-01-02T07:59:17.496Z,102134.05
2019-01-02T08:00:35.831Z,102121.20
2019-01-02T08:01:54.813Z,102133.56
2019-01-02T08:03:18.637Z,102142.88
2019-01-02T08:04:33.584Z,102140.58
2019-01-02T08:06:09.382Z,102143.99
2019-01-02T08:07:24.793Z,102146.66
2019-01-02T08:08:43.294Z,102147.63
2019-01-02T08:10:05.404Z,102140.59
2019-01-02T08:13:28.466Z,102149.69
2019-01-02T08:14:43.574Z,102146.30
2019-01-02T08:16:48.110Z,102140.23
2019-01-02T08:18:02.842Z,102149.08
2019-01-02T08:19:39.071Z,102153.07
2019-01-02T08:21:02.209Z,102150.05
2019-01-02T08:24:20.866Z,102149.80
2019-01-02T08:27:45.914Z,102152.95
2019-01-02T08:31:07.552Z,102163.98
2019-01-02T08:32:22.363Z,102167.82
2019-01-02T08:33:45.423Z,102168.77
2019-01-02T08:35:13.478Z,102168.06
2019-01-02T08:36:37.258Z,102179.97
2019-01-02T08:37:57.604Z,102169.88
2019-01-02T08:39:19.308Z,102182.63
2019-01-02T08:40:37.369Z,102189.86
2019-01-02T08:42:00.443Z,102182.48
2019-01-02T08:43:17.631Z,102183.95
2019-01-02T08:44:48.641Z,102182.36
2019-01-02T08:46:33.291Z,102189.86
2019-01-02T08:49:54.001Z,102193.86
2019-01-02T08:51:09.912Z,102212.30
2019-01-02T08:54:32.631Z,102202.09
2019-01-02T08:58:04.693Z,102210.45
2019-01-02T08:59:23.376Z,102222.80
2019-01-02T09:02:42.345Z,102235.55
2019-01-02T09:04:11.930Z,102234.95
2019-01-02T09:05:23.318Z,102235.43
2019-01-02T09:06:45.229Z,102239.06
2019-01-02T09:08:04.308Z,102236.64
2019-01-02T09:10:21.926Z,102233.37
2019-01-02T09:11:45.690Z,102242.85
2019-01-02T09:13:14.787Z,102236.43
2019-01-02T09:14:32.816Z,102236.06
2019-01-02T09:15:49.736Z,102249.39
2019-01-02T09:18:08.760Z,102251.48
2019-01-02T09:20:02.285Z,102248.91
2019-01-02T09:21:22.411Z,102243.94
2019-01-02T09:22:44.364Z,102250.00
2019-01-02T09:24:03.408Z,102257.17
2019-01-02T09:25:46.095Z,102252.81
2019-01-02T09:29:05.884Z,102252.94
2019-01-02T09:30:25.963Z,102263.48
2019-01-02T09:33:52.159Z,102272.44
2019-01-02T09:35:24.014Z,102266.27
2019-01-02T09:36:39.017Z,102269.66
2019-01-02T09:37:57.354Z,102271.59
2019-01-02T09:39:23.514Z,102270.27
2019-01-02T09:42:40.484Z,102269.38
2019-01-02T09:45:57.809Z,102273.14
2019-01-02T09:47:16.647Z,102278.26
2019-01-02T09:48:45.760Z,102279.11
2019-01-02T09:50:05.995Z,102286.05
2019-01-02T09:53:36.627Z,102286.13
2019-01-02T09:55:06.128Z,102284.11
2019-01-02T09:57:40.133Z,102296.83
2019-01-02T09:58:55.566Z,102288.22
2019-01-02T10:00:07.930Z,102292.50
2019-01-02T10:01:23.331Z,102301.46
2019-01-02T10:03:44.247Z,102294.44
2019-01-02T10:09:09.396Z,102297.83
2019-01-02T10:12:28.728Z,102289.10
2019-01-02T10:14:51.694Z,102287.65
2019-01-02T10:16:09.509Z,102298.04
2019-01-02T10:18:24.157Z,102308.09
2019-01-02T10:19:41.176Z,102305.83
2019-01-02T10:21:12.270Z,102304.01
2019-01-02T10:22:28.138Z,102295.65
2019-01-02T10:25:46.200Z,102297.70
2019-01-02T10:27:05.279Z,102312.73
2019-01-02T10:29:28.554Z,102312.38
2019-01-02T10:31:46.577Z,102311.80
2019-01-02T10:35:06.061Z,102323.80
2019-01-02T10:36:36.775Z,102321.27
2019-01-02T10:38:32.039Z,102324.77
2019-01-02T10:40:44.905Z,102318.58
2019-01-02T10:42:00.967Z,102325.48
2019-01-02T10:45:49.141Z,102317.40
2019-01-02T10:48:07.518Z,102330.88
2019-01-02T10:51:57.408Z,102329.19
2019-01-02T10:53:14.451Z,102325.67
2019-01-02T10:54:30.682Z,102330.48
2019-01-02T10:55:47.983Z,102333.03
2019-01-02T10:57:06.019Z,102334.25
2019-01-02T10:58:57.442Z,102331.09
2019-01-02T11:00:25.908Z,102325.03
2019-01-02T11:01:45.269Z,102326.00
2019-01-02T11:03:32.682Z,102333.89
2019-01-02T11:06:53.926Z,102324.42
2019-01-02T11:08:27.711Z,102331.61
2019-01-02T11:11:54.642Z,102329.67
2019-01-02T11:13:08.138Z,102330.88
2019-01-02T11:14:27.260Z,102332.70
2019-01-02T11:16:45.261Z,102331.09
2019-01-02T11:18:10.857Z,102338.76
2019-01-02T11:19:55.953Z,102334.03
2019-01-02T11:22:15.475Z,102340.12
2019-01-02T11:24:42.185Z,102341.33
2019-01-02T11:27:09.423Z,102348.97
2019-01-02T11:30:34.549Z,102351.30
2019-01-02T11:31:52.073Z,102347.32
2019-01-02T11:33:16.416Z,102362.84
2019-01-02T11:34:31.717Z,102352.50
2019-01-02T11:35:46.739Z,102361.61
2019-01-02T11:38:06.145Z,102346.08
2019-01-02T11:40:21.270Z,102362.45
2019-01-02T11:41:37.271Z,102363.69
2019-01-02T11:42:51.098Z,102363.56
2019-01-02T11:45:06.796Z,102379.61
2019-01-02T11:46:11.287Z,102370.50
2019-01-02T11:47:16.053Z,102376.45
2019-01-02T11:48:20.847Z,102373.88
2019-01-02T11:49:25.882Z,102383.61
2019-01-02T11:50:30.384Z,102382.02
2019-01-02T11:51:34.960Z,102382.64
2019-01-02T11:52:39.369Z,102379.72
2019-01-02T11:53:43.886Z,102386.75
2019-01-02T11:54:48.722Z,102390.75
2019-01-02T11:55:53.533Z,102389.08
2019-01-02T11:56:58.258Z,102389.42
2019-01-02T11:58:02.838Z,102387.36
2019-01-02T11:59:07.638Z,102390.15
2019-01-02T12:00:15.125Z,102395.87
2019-01-02T12:01:19.865Z,102395.39
2019-01-02T12:02:24.446Z,102392.36
2019-01-02T12:03:29.058Z,102405.58
2019-01-02T12:04:33.459Z,102398.41
2019-01-02T12:05:38.011Z,102417.86
2019-01-02T12:06:43.609Z,102413.73
2019-01-02T12:07:48.386Z,102410.58
2019-01-02T12:08:52.985Z,102414.09
2019-01-02T12:09:57.617Z,102413.51
2019-01-02T12:11:02.656Z,102407.80
2019-01-02T12:12:07.025Z,102409.48
2019-01-02T12:13:11.403Z,102410.47
2019-01-02T12:14:15.562Z,102400.14
2019-01-02T12:15:19.866Z,102418.22
2019-01-02T12:16:24.183Z,102408.30
2019-01-02T12:17:29.267Z,102418.70
2019-01-02T12:18:33.541Z,102410.58
2019-01-02T12:19:39.587Z,102408.99
2019-01-02T12:20:44.502Z,102405.23
2019-01-02T12:21:49.094Z,102416.02
2019-01-02T12:22:53.887Z,102413.86
2019-01-02T12:23:58.457Z,102419.68
2019-01-02T12:25:03.265Z,102413.49
2019-01-02T12:26:07.811Z,102414.43
2019-01-02T12:27:12.356Z,102420.74
2019-01-02T12:28:16.996Z,102418.07
2019-01-02T12:29:21.584Z,102424.39
2019-01-02T12:30:25.938Z,102423.41
2019-01-02T12:31:30.495Z,102426.33
2019-01-02T12:32:35.160Z,102428.75
2019-01-02T12:33:39.845Z,102427.78
2019-01-02T12:34:44.356Z,102431.42
2019-01-02T12:35:48.844Z,102432.05
2019-01-02T12:36:53.370Z,102430.33
2019-01-02T12:37:57.875Z,102440.03
2019-01-02T12:39:02.417Z,102429.27
2019-01-02T12:40:07.550Z,102431.09
2019-01-02T12:41:12.110Z,102431.34
2019-01-02T12:42:16.658Z,102443.72
2019-01-02T12:43:21.310Z,102435.72
2019-01-02T12:44:25.756Z,102443.26
2019-01-02T12:45:30.417Z,102438.14
2019-01-02T12:46:34.984Z,102437.28
2019-01-02T12:47:39.644Z,102443.23
2019-01-02T12:48:44.193Z,102442.03
2019-01-02T12:49:48.919Z,102451.97
2019-01-02T12:50:53.342Z,102456.13
2019-01-02T12:51:57.823Z,102455.52
2019-01-02T12:53:02.351Z,102455.00
2019-01-02T12:54:06.802Z,102459.38
2019-01-02T12:55:11.186Z,102459.77
2019-01-02T12:56:16.024Z,102461.10
2019-01-02T12:57:20.335Z,102467.27
2019-01-02T12:58:24.914Z,102462.53
2019-01-02T12:59:29.702Z,102458.53
2019-01-02T13:00:39.686Z,102464.84
2019-01-02T13:01:52.189Z,102466.75
2019-01-02T13:03:06.420Z,102459.59
2019-01-02T13:05:21.059Z,102467.61
2019-01-02T13:09:44.261Z,102464.78
2019-01-02T13:11:06.781Z,102468.67
2019-01-02T13:12:22.169Z,102469.64
2019-01-02T13:14:36.971Z,102469.12
2019-01-02T13:16:11.242Z,102468.24
2019-01-02T13:17:25.174Z,102481.70
2019-01-02T13:19:15.024Z,102480.61
2019-01-02T13:21:04.922Z,102479.67
2019-01-02T13:22:19.657Z,102490.56
2019-01-02T13:23:40.204Z,102490.80
2019-01-02T13:24:57.871Z,102495.17
2019-01-02T13:26:18.367Z,102503.30
2019-01-02T13:28:05.511Z,102504.39
2019-01-02T13:30:26.437Z,102506.20
2019-01-02T13:31:47.278Z,102511.58
2019-01-02T13:33:44.947Z,102511.55
2019-01-02T13:35:07.441Z,102513.11
2019-01-02T13:37:22.680Z,102520.64
2019-01-02T13:38:45.905Z,102514.08
2019-01-02T13:40:16.088Z,102512.75
2019-01-02T13:41:36.580Z,102511.63
2019-01-02T13:42:49.114Z,102512.47
2019-01-02T13:44:09.202Z,102517.45
2019-01-02T13:45:30.595Z,102518.17
2019-01-02T13:47:51.643Z,102524.11
2019-01-02T13:49:37.758Z,102529.89
2019-01-02T13:50:59.686Z,102526.66
2019-01-02T13:52:04.051Z,102528.84
2019-01-02T13:53:10.076Z,102530.66
2019-01-02T13:54:14.836Z,102529.44
2019-01-02T13:55:21.030Z,102527.70
2019-01-02T13:56:26.373Z,102530.02
2019-01-02T13:57:30.822Z,102526.09
2019-01-02T13:58:35.481Z,102533.52
2019-01-02T13:59:40.456Z,102538.09
2019-01-02T14:00:45.400Z,102531.66
2019-01-02T14:01:50.105Z,102536.62
2019-01-02T14:02:55.159Z,102539.29
2019-01-02T14:04:02.877Z,102539.17
2019-01-02T14:05:10.533Z,102538.63
2019-01-02T14:06:15.021Z,102534.63
2019-01-02T14:07:19.824Z,102539.73
2019-01-02T14:08:24.385Z,102543.00
2019-01-02T14:09:29.254Z,102547.12
2019-01-02T14:10:33.973Z,102541.55
2019-01-02T14:11:38.494Z,102545.50
2019-01-02T14:12:43.048Z,102551.43
2019-01-02T14:13:47.911Z,102546.83
2019-01-02T14:14:52.430Z,102545.98
2019-01-02T14:15:56.957Z,102545.05
2019-01-02T14:17:02.129Z,102549.78
2019-01-02T14:18:06.561Z,102549.30
2019-01-02T14:19:11.089Z,102546.83
2019-01-02T14:20:15.373Z,102549.22
2019-01-02T14:21:19.944Z,102550.70
2019-01-02T14:22:24.723Z,102555.30
2019-01-02T14:23:29.382Z,102554.33
2019-01-02T14:24:33.927Z,102557.25
2019-01-02T14:25:38.590Z,102554.09
2019-01-02T14:26:42.971Z,102550.83
2019-01-02T14:27:47.460Z,102560.56
2019-01-02T14:28:51.880Z,102559.23
2019-01-02T14:29:56.529Z,102565.13